Time;durP1;ratioP1;P1;durP2;ratioP2;P2;SDS_P1;SDS_P2;PMS_P1;PMS_P2;Temp;Humidity;BMP_temperature;BMP_pressure;BME280_temperature;BME280_humidity;BME280_pressure;Samples;Min_cycle;Max_cycle;Signal;HPM_P1;HPM_P2
2023/08/28 00:02:20;;;;;;;8.82;6.35;;;13.40;99.90;;;;;;5065348;28;20177;-76
2023/08/28 00:04:45;;;;;;;8.57;5.72;;;13.40;99.90;;;;;;5044937;28;20098;-76
2023/08/28 00:07:13;;;;;;;9.02;5.75;;;13.40;99.90;;;;;;5056837;28;20136;-76
2023/08/28 00:09:39;;;;;;;8.10;6.35;;;13.50;99.90;;;;;;5062271;28;20044;-76
2023/08/28 00:12:05;;;;;;;8.00;5.25;;;13.50;99.90;;;;;;5091965;27;20076;-76
2023/08/28 00:14:31;;;;;;;8.80;5.80;;;13.40;99.90;;;;;;5037416;28;22236;-76
2023/08/28 00:16:57;;;;;;;13.73;8.32;;;13.40;99.90;;;;;;5069301;28;20051;-76
2023/08/28 00:19:23;;;;;;;8.80;5.72;;;13.40;99.90;;;;;;5052646;28;20097;-76
2023/08/28 00:21:49;;;;;;;7.78;5.80;;;13.30;99.90;;;;;;5033288;28;20128;-77
2023/08/28 00:24:15;;;;;;;7.85;5.85;;;13.30;99.90;;;;;;5053160;28;20037;-75
2023/08/28 00:26:41;;;;;;;10.02;5.80;;;13.30;99.90;;;;;;5053960;28;20139;-76
2023/08/28 00:29:06;;;;;;;9.00;7.22;;;13.20;99.90;;;;;;5052896;28;20041;-75
2023/08/28 00:31:33;;;;;;;7.25;4.85;;;13.20;99.90;;;;;;5050779;28;20098;-76
2023/08/28 00:34:00;;;;;;;6.45;5.45;;;13.10;99.90;;;;;;5051380;28;20052;-76
2023/08/28 00:36:25;;;;;;;7.22;5.72;;;13.10;99.90;;;;;;5050081;28;20071;-75
2023/08/28 00:38:51;;;;;;;9.68;8.07;;;13.10;99.90;;;;;;5051538;28;20499;-77
2023/08/28 00:41:17;;;;;;;5.57;4.53;;;13.10;99.90;;;;;;5068603;28;20794;-76
2023/08/28 00:43:43;;;;;;;12.15;8.55;;;13.00;99.90;;;;;;5051171;28;20072;-76
2023/08/28 00:46:09;;;;;;;7.88;6.22;;;12.90;99.90;;;;;;5034831;28;20029;-77
2023/08/28 00:48:35;;;;;;;10.25;7.78;;;12.90;99.90;;;;;;5033278;28;20757;-75
2023/08/28 00:51:03;;;;;;;12.20;6.43;;;12.90;99.90;;;;;;5048676;28;20041;-75
2023/08/28 00:53:29;;;;;;;8.02;7.22;;;12.80;99.90;;;;;;5035418;28;20565;-75
2023/08/28 00:55:55;;;;;;;5.68;4.88;;;12.80;99.90;;;;;;5049001;28;20041;-75
2023/08/28 00:58:21;;;;;;;6.28;5.25;;;12.80;99.90;;;;;;5051836;28;20047;-75
2023/08/28 01:00:47;;;;;;;7.72;5.97;;;12.70;99.90;;;;;;5052966;28;20582;-75
2023/08/28 01:03:13;;;;;;;8.02;5.30;;;12.70;99.90;;;;;;5050025;28;20048;-74
2023/08/28 01:05:58;;;;;;;9.13;7.90;;;12.70;99.90;;;;;;5035348;28;20315;-74
2023/08/28 01:08:28;;;;;;;6.65;5.63;;;12.70;99.90;;;;;;5033519;28;20045;-75
2023/08/28 01:11:10;;;;;;;10.43;5.90;;;12.60;99.90;;;;;;5087642;28;20048;-75
2023/08/28 01:13:47;;;;;;;9.13;5.80;;;12.60;99.90;;;;;;5047771;28;20048;-75
2023/08/28 01:16:16;;;;;;;6.45;5.70;;;12.60;99.90;;;;;;5051442;28;20499;-75
2023/08/28 01:18:42;;;;;;;7.30;5.50;;;12.60;99.90;;;;;;5051711;28;20609;-75
2023/08/28 01:21:09;;;;;;;6.05;5.35;;;12.50;99.90;;;;;;5050347;28;20048;-76
2023/08/28 01:23:41;;;;;;;26.58;10.48;;;12.50;99.90;;;;;;5052343;28;20063;-75
2023/08/28 01:26:07;;;;;;;6.82;4.97;;;12.40;99.90;;;;;;5049488;28;20147;-75
2023/08/28 01:28:33;;;;;;;6.18;4.72;;;12.30;99.90;;;;;;5050232;28;20729;-75
2023/08/28 01:30:59;;;;;;;8.38;5.63;;;12.30;99.90;;;;;;5051266;28;20119;-75
2023/08/28 01:33:28;;;;;;;7.47;5.32;;;12.30;99.90;;;;;;5029813;28;20052;-76
2023/08/28 01:36:17;;;;;;;6.28;4.95;;;12.20;99.90;;;;;;5070199;28;20646;-74
2023/08/28 01:38:59;;;;;;;6.50;4.88;;;12.20;99.90;;;;;;5066725;28;20126;-74
2023/08/28 01:41:36;;;;;;;6.88;4.80;;;12.10;99.90;;;;;;5051631;28;20063;-75
2023/08/28 01:44:04;;;;;;;10.75;7.70;;;12.20;99.90;;;;;;5067446;28;20052;-74
2023/08/28 01:46:32;;;;;;;7.20;5.50;;;12.10;99.90;;;;;;5031878;28;20036;-75
2023/08/28 01:48:58;;;;;;;8.00;6.03;;;12.10;99.90;;;;;;5035391;28;20045;-75
2023/08/28 01:51:23;;;;;;;9.60;6.70;;;12.10;99.90;;;;;;5034577;28;20512;-74
2023/08/28 01:53:50;;;;;;;15.23;8.38;;;12.10;99.90;;;;;;5042740;28;20131;-74
2023/08/28 01:56:20;;;;;;;8.68;7.40;;;12.20;99.90;;;;;;5049540;28;20115;-74
2023/08/28 01:58:54;;;;;;;8.40;7.10;;;12.20;99.90;;;;;;5050495;28;20186;-75
2023/08/28 02:01:25;;;;;;;14.00;10.50;;;12.20;99.90;;;;;;5050588;28;20139;-75
2023/08/28 02:03:54;;;;;;;9.60;7.25;;;12.20;99.90;;;;;;5060944;28;20044;-74
2023/08/28 02:06:21;;;;;;;10.43;9.07;;;12.20;99.90;;;;;;5047543;28;20044;-75
2023/08/28 02:08:47;;;;;;;10.05;8.27;;;12.20;99.90;;;;;;5084524;28;20041;-75
2023/08/28 02:11:13;;;;;;;9.52;8.30;;;12.20;99.90;;;;;;5051190;28;20637;-74
2023/08/28 02:13:39;;;;;;;9.48;8.48;;;12.20;99.90;;;;;;5038193;28;20071;-74
2023/08/28 02:16:05;;;;;;;9.88;8.80;;;12.20;99.90;;;;;;5054264;28;20542;-74
2023/08/28 02:18:31;;;;;;;11.93;8.95;;;12.20;99.90;;;;;;5036824;28;20530;-75
2023/08/28 02:20:57;;;;;;;19.05;13.88;;;12.20;99.90;;;;;;5039252;28;20482;-74
2023/08/28 02:23:26;;;;;;;11.60;8.63;;;12.20;99.90;;;;;;5051166;28;20040;-74
2023/08/28 02:25:52;;;;;;;10.25;9.20;;;12.20;99.90;;;;;;5057607;28;20078;-74
2023/08/28 02:28:18;;;;;;;9.20;8.07;;;12.20;99.90;;;;;;5073158;28;20070;-74
2023/08/28 02:30:47;;;;;;;10.05;9.05;;;12.20;99.90;;;;;;5041623;28;20040;-75
2023/08/28 02:33:14;;;;;;;11.35;10.20;;;12.20;99.90;;;;;;5038873;28;20076;-74
2023/08/28 02:35:43;;;;;;;10.82;9.00;;;12.20;99.90;;;;;;5056970;28;20597;-74
2023/08/28 02:38:16;;;;;;;15.77;13.90;;;12.20;99.90;;;;;;5041526;28;20094;-74
2023/08/28 02:40:41;;;;;;;13.75;11.85;;;12.20;99.90;;;;;;5045955;28;20053;-74
2023/08/28 02:43:09;;;;;;;12.70;11.35;;;12.20;99.90;;;;;;5047760;28;20037;-75
2023/08/28 02:45:44;;;;;;;15.88;13.63;;;12.20;99.90;;;;;;5058989;28;20550;-75
2023/08/28 02:48:10;;;;;;;13.32;12.13;;;12.20;99.90;;;;;;5046204;28;20075;-75
2023/08/28 02:50:35;;;;;;;18.83;16.48;;;12.20;99.90;;;;;;5047876;28;20124;-75
2023/08/28 02:53:03;;;;;;;17.58;15.77;;;12.20;99.90;;;;;;5047112;28;20082;-75
2023/08/28 02:55:30;;;;;;;13.63;12.27;;;12.10;99.90;;;;;;5044240;28;20194;-75
2023/08/28 02:57:56;;;;;;;17.98;14.63;;;12.20;99.90;;;;;;5047374;28;20055;-75
2023/08/28 03:00:22;;;;;;;14.18;12.93;;;12.20;99.90;;;;;;5045519;28;20044;-74
2023/08/28 03:02:48;;;;;;;13.75;12.45;;;12.10;99.90;;;;;;5063963;28;20647;-75
2023/08/28 03:05:14;;;;;;;18.42;14.55;;;12.10;99.90;;;;;;5059481;28;20048;-75
2023/08/28 03:07:40;;;;;;;14.88;13.40;;;12.10;99.90;;;;;;5062372;28;20483;-75
2023/08/28 03:10:07;;;;;;;14.73;13.45;;;12.10;99.90;;;;;;5062167;28;20490;-75
2023/08/28 03:12:33;;;;;;;13.98;12.77;;;12.10;99.90;;;;;;5061606;28;20048;-75
2023/08/28 03:14:59;;;;;;;17.60;15.90;;;12.00;99.90;;;;;;5042055;28;20052;-75
2023/08/28 03:17:25;;;;;;;29.90;22.25;;;12.00;99.90;;;;;;5046140;28;20618;-75
2023/08/28 03:19:50;;;;;;;14.13;12.85;;;12.00;99.90;;;;;;5061867;28;20044;-76
2023/08/28 03:22:16;;;;;;;15.25;13.85;;;12.00;99.90;;;;;;5061390;28;20136;-76
2023/08/28 03:24:42;;;;;;;18.27;16.48;;;12.00;99.90;;;;;;5045422;28;20398;-75
2023/08/28 03:27:07;;;;;;;53.38;19.65;;;12.00;99.90;;;;;;5062562;28;20372;-76
2023/08/28 03:29:33;;;;;;;14.60;13.32;;;12.00;99.90;;;;;;5059290;28;20037;-75
2023/08/28 03:32:00;;;;;;;13.88;12.50;;;11.90;99.90;;;;;;5061475;28;20055;-75
2023/08/28 03:34:25;;;;;;;14.93;13.55;;;11.90;99.90;;;;;;5059299;28;20859;-75
2023/08/28 03:36:51;;;;;;;14.98;13.77;;;11.90;99.90;;;;;;5062807;28;20044;-75
2023/08/28 03:39:17;;;;;;;15.23;13.93;;;11.90;99.90;;;;;;5061172;28;20449;-74
2023/08/28 03:41:43;;;;;;;35.50;17.50;;;11.90;99.90;;;;;;5060614;28;20106;-74
2023/08/28 03:44:08;;;;;;;13.95;12.77;;;11.90;99.90;;;;;;5061015;28;20490;-74
2023/08/28 03:46:34;;;;;;;14.52;13.23;;;11.80;99.90;;;;;;5043741;28;20069;-74
2023/08/28 03:49:04;;;;;;;13.57;12.18;;;11.80;99.90;;;;;;5045239;28;20239;-73
2023/08/28 03:51:29;;;;;;;14.13;12.75;;;11.70;99.90;;;;;;5093832;28;20052;-75
2023/08/28 03:53:55;;;;;;;30.70;20.45;;;11.60;99.90;;;;;;5045243;28;20732;-74
2023/08/28 03:56:22;;;;;;;20.25;15.90;;;11.60;99.90;;;;;;5045614;28;20041;-74
2023/08/28 03:58:48;;;;;;;60.92;16.23;;;11.60;99.90;;;;;;5059672;28;20051;-75
2023/08/28 04:01:14;;;;;;;14.05;12.65;;;11.50;99.90;;;;;;5041979;28;20044;-75
2023/08/28 04:03:39;;;;;;;18.40;16.48;;;11.50;99.90;;;;;;5056462;28;20118;-74
2023/08/28 04:06:08;;;;;;;32.78;21.50;;;11.50;99.90;;;;;;5043792;28;20053;-75
2023/08/28 04:08:34;;;;;;;15.55;13.02;;;11.40;99.90;;;;;;5060040;28;20457;-75
2023/08/28 04:11:00;;;;;;;11.82;10.68;;;11.40;99.90;;;;;;5045465;28;20127;-74
2023/08/28 04:13:26;;;;;;;10.82;9.73;;;11.30;99.90;;;;;;5057475;28;20056;-74
2023/08/28 04:15:52;;;;;;;61.22;19.25;;;11.30;99.90;;;;;;5044582;28;20155;-74
2023/08/28 04:18:17;;;;;;;74.07;21.85;;;11.30;99.90;;;;;;5045464;28;20140;-74
2023/08/28 04:20:43;;;;;;;35.20;21.10;;;11.20;99.90;;;;;;5062156;28;20491;-73
2023/08/28 04:23:09;;;;;;;15.13;13.40;;;11.10;99.90;;;;;;5058435;28;20495;-74
2023/08/28 04:25:35;;;;;;;26.33;17.80;;;11.10;99.90;;;;;;5059866;28;20491;-74
2023/08/28 04:28:01;;;;;;;54.70;23.33;;;11.10;99.90;;;;;;5060365;28;20048;-74
2023/08/28 04:30:26;;;;;;;14.82;13.43;;;11.10;99.90;;;;;;5046144;28;20040;-74
2023/08/28 04:32:53;;;;;;;23.77;17.85;;;11.10;99.90;;;;;;5058824;28;20127;-74
2023/08/28 04:35:18;;;;;;;14.20;13.00;;;11.10;99.90;;;;;;5075106;28;20230;-74
2023/08/28 04:37:44;;;;;;;15.13;13.73;;;11.00;99.90;;;;;;5092028;28;20159;-74
2023/08/28 04:40:10;;;;;;;15.07;13.77;;;11.10;99.90;;;;;;5047038;28;20047;-74
2023/08/28 04:42:36;;;;;;;19.50;16.70;;;11.20;99.90;;;;;;5057861;28;20539;-73
2023/08/28 04:45:02;;;;;;;69.85;27.40;;;11.20;99.90;;;;;;5060595;28;20064;-74
2023/08/28 04:47:29;;;;;;;20.38;15.82;;;11.20;99.90;;;;;;5061221;28;20051;-74
2023/08/28 04:49:55;;;;;;;25.42;13.80;;;11.20;99.90;;;;;;5041230;28;20037;-74
2023/08/28 04:52:22;;;;;;;13.98;12.57;;;11.20;99.90;;;;;;5061174;28;20046;-74
2023/08/28 04:54:48;;;;;;;16.10;14.57;;;11.20;99.90;;;;;;5059019;28;20049;-74
2023/08/28 04:57:13;;;;;;;17.02;15.35;;;11.20;99.90;;;;;;5060297;28;20521;-74
2023/08/28 04:59:39;;;;;;;16.02;14.43;;;11.20;99.90;;;;;;5055540;28;20047;-74
2023/08/28 05:02:05;;;;;;;16.73;14.95;;;11.20;99.90;;;;;;5044513;28;20049;-75
2023/08/28 05:04:31;;;;;;;15.77;14.27;;;11.30;99.90;;;;;;5059906;28;20392;-75
2023/08/28 05:06:57;;;;;;;15.80;14.30;;;11.30;99.90;;;;;;5059781;28;20044;-75
2023/08/28 05:09:23;;;;;;;17.02;15.40;;;11.30;99.90;;;;;;5055809;28;20036;-75
2023/08/28 05:11:48;;;;;;;20.05;18.10;;;11.40;99.90;;;;;;5058037;28;20201;-74
2023/08/28 05:14:17;;;;;;;18.67;17.00;;;11.40;99.90;;;;;;5059086;28;20053;-74
2023/08/28 05:16:43;;;;;;;19.13;17.17;;;11.40;99.90;;;;;;5057707;28;20052;-75
2023/08/28 05:19:09;;;;;;;17.80;16.05;;;11.50;99.90;;;;;;5062019;28;20109;-75
2023/08/28 05:21:34;;;;;;;18.73;16.95;;;11.50;99.90;;;;;;5040620;28;20412;-74
2023/08/28 05:24:00;;;;;;;18.00;16.23;;;11.50;99.90;;;;;;5060051;28;20279;-74
2023/08/28 05:26:26;;;;;;;17.95;16.13;;;11.50;99.90;;;;;;5056303;28;20415;-74
2023/08/28 05:28:51;;;;;;;20.45;18.02;;;11.60;99.90;;;;;;5061254;28;20122;-74
2023/08/28 05:31:17;;;;;;;18.35;16.65;;;11.60;99.90;;;;;;5057810;28;20033;-74
2023/08/28 05:33:43;;;;;;;19.45;17.50;;;11.60;99.90;;;;;;5060152;28;20457;-74
2023/08/28 05:36:09;;;;;;;22.63;20.40;;;11.60;99.90;;;;;;5055802;28;20442;-74
2023/08/28 05:38:35;;;;;;;18.20;16.52;;;11.70;99.90;;;;;;5043384;28;20364;-74
2023/08/28 05:41:00;;;;;;;18.27;16.58;;;11.70;99.90;;;;;;5040723;28;20297;-74
2023/08/28 05:43:26;;;;;;;16.65;15.15;;;11.80;99.90;;;;;;5057772;28;20101;-74
2023/08/28 05:45:52;;;;;;;31.40;22.42;;;11.80;99.90;;;;;;5058589;28;20037;-74
2023/08/28 05:48:17;;;;;;;18.10;16.30;;;11.90;99.90;;;;;;5057313;28;20067;-74
2023/08/28 05:50:50;;;;;;;16.85;15.20;;;11.90;99.90;;;;;;5058566;28;20041;-74
2023/08/28 05:53:16;;;;;;;18.02;15.90;;;11.90;99.90;;;;;;5059553;28;20037;-74
2023/08/28 05:55:42;;;;;;;18.88;16.85;;;12.00;99.90;;;;;;5059381;28;20044;-74
2023/08/28 05:58:07;;;;;;;16.08;14.48;;;12.10;99.90;;;;;;5055954;28;20071;-76
2023/08/28 06:00:33;;;;;;;18.88;16.98;;;12.10;99.90;;;;;;5057902;28;20104;-76
2023/08/28 06:02:59;;;;;;;17.08;15.38;;;12.10;99.90;;;;;;5056472;28;20654;-74
2023/08/28 06:05:24;;;;;;;20.15;17.70;;;12.20;99.90;;;;;;5054257;28;21158;-76
2023/08/28 06:07:50;;;;;;;19.38;16.83;;;12.20;99.90;;;;;;5058015;28;20919;-74
2023/08/28 06:10:19;;;;;;;20.17;18.08;;;12.30;99.90;;;;;;5040945;28;20040;-74
2023/08/28 06:12:48;;;;;;;40.92;24.02;;;12.30;99.90;;;;;;5091597;28;20143;-73
2023/08/28 06:15:17;;;;;;;21.47;19.37;;;12.40;99.90;;;;;;5057816;28;20037;-75
2023/08/28 06:17:43;;;;;;;19.50;17.48;;;12.50;99.90;;;;;;5057927;28;20101;-75
2023/08/28 06:20:10;;;;;;;20.75;18.65;;;12.50;99.90;;;;;;5056199;28;21149;-75
2023/08/28 06:22:40;;;;;;;27.55;22.27;;;12.50;99.90;;;;;;5056946;28;20610;-75
2023/08/28 06:25:08;;;;;;;21.00;18.90;;;12.60;99.90;;;;;;5042869;28;20041;-75
2023/08/28 06:27:33;;;;;;;24.05;20.92;;;12.60;99.90;;;;;;5060223;28;20418;-74
2023/08/28 06:29:59;;;;;;;22.45;20.35;;;12.70;99.90;;;;;;5054848;28;20037;-75
2023/08/28 06:32:25;;;;;;;21.30;19.17;;;12.70;99.90;;;;;;5042991;28;20127;-75
2023/08/28 06:34:51;;;;;;;21.15;19.15;;;12.80;99.90;;;;;;5055480;28;21014;-75
2023/08/28 06:37:16;;;;;;;22.05;19.77;;;12.80;99.90;;;;;;5057953;28;20048;-74
2023/08/28 06:39:42;;;;;;;21.02;18.95;;;12.90;99.90;;;;;;5055480;28;20047;-75
2023/08/28 06:42:08;;;;;;;20.65;18.63;;;12.90;99.90;;;;;;5055498;28;20062;-75
2023/08/28 06:44:33;;;;;;;25.52;21.25;;;13.00;99.90;;;;;;5054345;28;20048;-75
2023/08/28 06:46:59;;;;;;;20.63;18.60;;;13.10;99.90;;;;;;5059023;28;20052;-76
2023/08/28 06:49:25;;;;;;;21.67;19.50;;;13.10;99.90;;;;;;5040962;28;20124;-75
2023/08/28 06:51:51;;;;;;;19.63;17.73;;;13.20;99.90;;;;;;5057031;28;21036;-75
2023/08/28 06:54:16;;;;;;;19.65;17.67;;;13.30;99.90;;;;;;5055918;28;20054;-75
2023/08/28 06:56:42;;;;;;;20.90;18.42;;;13.30;99.90;;;;;;5058111;28;20126;-74
2023/08/28 06:59:08;;;;;;;20.52;18.40;;;13.40;99.90;;;;;;5058381;28;20037;-74
2023/08/28 07:01:33;;;;;;;19.20;17.15;;;13.50;99.90;;;;;;5042399;28;20043;-74
2023/08/28 07:04:04;;;;;;;18.65;16.95;;;13.60;99.90;;;;;;5041305;28;20070;-74
2023/08/28 07:06:30;;;;;;;19.17;17.25;;;13.70;99.90;;;;;;5056351;28;20110;-75
2023/08/28 07:08:56;;;;;;;18.52;16.45;;;13.70;99.90;;;;;;5052840;28;20045;-74
2023/08/28 07:11:22;;;;;;;20.02;18.10;;;13.80;99.90;;;;;;5056001;28;20037;-75
2023/08/28 07:13:48;;;;;;;17.95;16.23;;;13.90;99.90;;;;;;5059647;28;20059;-75
2023/08/28 07:16:13;;;;;;;16.77;15.18;;;14.00;99.90;;;;;;5056890;28;20035;-75
2023/08/28 07:18:39;;;;;;;16.95;14.00;;;14.10;99.90;;;;;;5059291;28;20067;-75
2023/08/28 07:21:05;;;;;;;13.70;12.35;;;14.20;99.90;;;;;;5059503;28;20056;-75
2023/08/28 07:23:31;;;;;;;13.50;12.10;;;14.40;99.90;;;;;;5075278;28;20131;-76
2023/08/28 07:25:58;;;;;;;12.45;11.25;;;14.50;99.90;;;;;;5057892;28;20044;-76
2023/08/28 07:28:24;;;;;;;12.82;11.52;;;14.60;99.90;;;;;;5058640;28;20040;-76
2023/08/28 07:30:50;;;;;;;11.82;10.52;;;14.80;99.90;;;;;;5058635;28;20054;-77
2023/08/28 07:33:17;;;;;;;11.23;10.00;;;14.90;99.90;;;;;;5058229;28;20036;-76
2023/08/28 07:35:44;;;;;;;13.05;9.90;;;15.10;99.90;;;;;;5061340;28;20789;-75
2023/08/28 07:38:10;;;;;;;10.32;9.32;;;15.30;99.90;;;;;;5044158;28;20051;-75
2023/08/28 07:40:36;;;;;;;10.02;8.80;;;15.40;99.90;;;;;;5078308;28;20135;-75
2023/08/28 07:43:03;;;;;;;9.43;6.78;;;15.60;99.90;;;;;;5059204;28;20135;-75
2023/08/28 07:45:29;;;;;;;8.10;6.28;;;15.70;99.90;;;;;;5039307;28;20454;-75
2023/08/28 07:47:55;;;;;;;6.55;5.32;;;15.80;99.90;;;;;;5058049;28;20127;-75
2023/08/28 07:50:22;;;;;;;7.65;6.03;;;16.00;99.90;;;;;;5060040;28;20072;-75
2023/08/28 07:52:48;;;;;;;8.07;5.82;;;16.00;99.90;;;;;;5074754;28;20558;-75
2023/08/28 07:55:14;;;;;;;6.97;6.18;;;16.30;99.90;;;;;;5061115;28;20466;-76
2023/08/28 07:57:43;;;;;;;7.25;5.32;;;16.40;99.90;;;;;;5057789;28;20047;-76
2023/08/28 08:00:13;;;;;;;6.65;4.93;;;16.60;99.90;;;;;;5049535;28;20044;-75
2023/08/28 08:02:43;;;;;;;6.13;4.78;;;16.70;99.90;;;;;;5061824;28;20109;-75
2023/08/28 08:05:12;;;;;;;7.20;4.38;;;16.90;99.90;;;;;;5052005;28;20032;-75
2023/08/28 08:07:40;;;;;;;6.78;4.18;;;17.00;99.90;;;;;;5045639;28;20363;-75
2023/08/28 08:10:12;;;;;;;5.18;4.13;;;17.20;99.90;;;;;;5074085;28;20035;-75
2023/08/28 08:12:38;;;;;;;5.88;3.70;;;17.40;99.90;;;;;;5041624;28;20056;-76
2023/08/28 08:15:06;;;;;;;3.53;2.10;;;17.60;99.90;;;;;;5055631;28;20351;-76
2023/08/28 08:17:33;;;;;;;3.85;2.70;;;17.60;99.90;;;;;;5045502;28;20079;-76
2023/08/28 08:19:58;;;;;;;6.13;2.95;;;17.70;99.90;;;;;;5058987;28;20056;-76
2023/08/28 08:22:24;;;;;;;3.35;1.73;;;17.90;99.90;;;;;;5042866;28;20422;-75
2023/08/28 08:24:50;;;;;;;4.88;2.20;;;18.00;99.90;;;;;;5057245;28;20525;-76
2023/08/28 08:27:16;;;;;;;6.75;1.70;;;18.20;99.90;;;;;;5058648;28;20036;-76
2023/08/28 08:29:42;;;;;;;4.65;1.70;;;18.30;99.90;;;;;;5058872;28;20484;-76
2023/08/28 08:32:08;;;;;;;3.72;1.40;;;18.40;99.90;;;;;;5044497;28;20103;-76
2023/08/28 08:34:34;;;;;;;4.95;1.50;;;18.50;99.90;;;;;;5059837;28;20958;-77
2023/08/28 08:37:00;;;;;;;3.92;1.30;;;18.60;99.90;;;;;;5057569;28;20122;-76
2023/08/28 08:39:25;;;;;;;3.90;1.30;;;18.80;99.90;;;;;;5059023;28;20051;-75
2023/08/28 08:41:51;;;;;;;6.57;1.83;;;18.90;99.90;;;;;;5055231;28;20037;-76
2023/08/28 08:44:17;;;;;;;3.47;0.93;;;19.00;99.90;;;;;;5058739;28;20098;-75
2023/08/28 08:46:46;;;;;;;2.78;1.05;;;19.00;99.90;;;;;;5057761;28;20052;-75
2023/08/28 08:49:17;;;;;;;4.20;1.02;;;19.00;99.90;;;;;;5057517;28;20091;-76
2023/08/28 08:51:45;;;;;;;4.82;1.15;;;18.90;99.90;;;;;;5056267;28;20048;-74
2023/08/28 08:54:19;;;;;;;4.43;1.13;;;18.80;99.90;;;;;;5087234;27;20059;-75
2023/08/28 08:56:48;;;;;;;4.47;1.50;;;18.90;99.90;;;;;;5058294;28;20109;-75
2023/08/28 08:59:14;;;;;;;4.90;1.23;;;19.00;99.90;;;;;;5042460;28;20036;-75
2023/08/28 09:01:43;;;;;;;3.05;0.90;;;19.00;99.90;;;;;;5056962;28;20052;-75
2023/08/28 09:04:09;;;;;;;5.80;1.30;;;18.90;99.90;;;;;;5042816;28;20098;-74
2023/08/28 09:06:37;;;;;;;3.15;1.40;;;18.80;99.90;;;;;;5058653;28;20131;-75
2023/08/28 09:09:06;;;;;;;4.53;1.45;;;18.70;99.90;;;;;;5057443;28;20445;-74
2023/08/28 09:11:40;;;;;;;4.47;1.00;;;18.60;99.90;;;;;;5089027;28;20361;-75
2023/08/28 09:14:06;;;;;;;4.18;1.33;;;18.40;99.90;;;;;;5040632;28;20052;-75
2023/08/28 09:16:35;;;;;;;4.32;1.33;;;18.30;99.90;;;;;;5057872;28;20053;-75
2023/08/28 09:19:02;;;;;;;3.40;1.20;;;18.20;99.90;;;;;;5059247;28;20090;-75
2023/08/28 09:21:35;;;;;;;3.13;1.50;;;18.00;99.90;;;;;;5055304;28;20037;-75
2023/08/28 09:24:01;;;;;;;2.08;1.00;;;18.00;99.90;;;;;;5043182;28;20719;-75
2023/08/28 09:26:27;;;;;;;3.25;1.10;;;17.90;99.90;;;;;;5038186;28;20503;-75
2023/08/28 09:29:04;;;;;;;3.85;0.90;;;18.00;99.90;;;;;;5058006;28;20152;-74
2023/08/28 09:31:32;;;;;;;4.05;0.77;;;18.10;99.90;;;;;;5056031;28;20499;-74
2023/08/28 09:33:58;;;;;;;2.80;0.70;;;18.40;99.90;;;;;;5088738;28;20044;-74
2023/08/28 09:36:25;;;;;;;4.20;0.75;;;18.60;99.90;;;;;;5041888;28;20041;-74
2023/08/28 09:38:51;;;;;;;3.35;0.70;;;18.90;99.90;;;;;;5053778;28;20407;-74
2023/08/28 09:41:17;;;;;;;2.60;0.80;;;19.00;99.90;;;;;;5039401;28;20733;-74
2023/08/28 09:43:43;;;;;;;1.85;0.60;;;19.30;99.90;;;;;;5057325;28;20052;-74
2023/08/28 09:46:08;;;;;;;2.92;0.82;;;19.50;99.90;;;;;;5041113;28;20045;-74
2023/08/28 09:48:35;;;;;;;2.00;0.77;;;19.70;99.90;;;;;;5056396;28;20131;-74
2023/08/28 09:51:07;;;;;;;2.78;0.80;;;19.90;99.90;;;;;;5058092;28;20522;-74
2023/08/28 09:53:33;;;;;;;2.22;0.70;;;19.90;99.90;;;;;;5054947;28;20125;-74
2023/08/28 09:55:59;;;;;;;3.97;1.30;;;19.80;99.90;;;;;;5056079;28;20529;-74
2023/08/28 09:58:27;;;;;;;3.60;1.10;;;19.60;99.90;;;;;;5039545;28;20497;-74
2023/08/28 10:00:56;;;;;;;3.25;0.77;;;19.40;99.90;;;;;;5055488;28;20987;-74
2023/08/28 10:03:23;;;;;;;2.67;0.93;;;19.40;99.90;;;;;;5055850;28;20570;-73
2023/08/28 10:05:51;;;;;;;2.58;0.70;;;19.60;99.90;;;;;;5056030;28;20052;-74
2023/08/28 10:08:17;;;;;;;1.52;0.75;;;19.80;99.90;;;;;;5038590;28;20137;-73
2023/08/28 10:10:47;;;;;;;2.05;0.50;;;20.00;99.90;;;;;;5055375;28;20132;-73
2023/08/28 10:13:21;;;;;;;1.83;0.88;;;20.10;99.90;;;;;;5049762;28;20198;-73
2023/08/28 10:15:52;;;;;;;4.05;1.05;;;20.20;99.90;;;;;;5044124;28;20048;-73
2023/08/28 10:18:27;;;;;;;2.25;0.70;;;20.20;99.90;;;;;;5051567;28;20525;-73
2023/08/28 10:20:54;;;;;;;2.85;0.55;;;20.10;99.90;;;;;;5048148;28;20533;-73
2023/08/28 10:23:21;;;;;;;2.25;0.60;;;20.00;99.90;;;;;;5039549;28;20127;-74
2023/08/28 10:25:51;;;;;;;2.15;0.65;;;20.00;99.90;;;;;;5067414;28;20074;-73
2023/08/28 10:28:18;;;;;;;1.55;0.77;;;20.00;99.90;;;;;;5058424;28;20135;-73
2023/08/28 10:30:45;;;;;;;4.32;0.57;;;20.30;99.90;;;;;;5056051;28;20049;-73
2023/08/28 10:33:13;;;;;;;3.55;0.73;;;20.50;99.90;;;;;;5056187;28;20120;-73
2023/08/28 10:35:42;;;;;;;3.88;0.85;;;20.70;99.90;;;;;;5037119;28;20151;-73
2023/08/28 10:38:12;;;;;;;2.90;0.70;;;20.80;99.90;;;;;;5075085;28;20461;-73
2023/08/28 10:40:38;;;;;;;2.30;0.90;;;20.80;99.90;;;;;;5052726;28;20082;-73
2023/08/28 10:43:05;;;;;;;2.72;1.00;;;20.70;99.90;;;;;;5056637;28;20040;-73
2023/08/28 10:45:34;;;;;;;1.58;0.68;;;20.50;99.90;;;;;;5041178;28;20184;-73
2023/08/28 10:47:59;;;;;;;2.80;0.70;;;20.30;99.90;;;;;;5040660;28;20454;-73
2023/08/28 10:50:37;;;;;;;1.73;0.70;;;20.00;99.90;;;;;;5060796;28;20127;-73
2023/08/28 10:53:04;;;;;;;3.38;0.70;;;19.80;99.90;;;;;;5058360;28;20593;-72
2023/08/28 10:55:30;;;;;;;2.92;0.80;;;19.70;99.90;;;;;;5074357;28;20036;-73
2023/08/28 10:58:01;;;;;;;2.35;0.70;;;19.60;99.90;;;;;;5060391;28;20059;-72
2023/08/28 11:00:28;;;;;;;1.52;0.60;;;19.60;99.90;;;;;;5060337;28;20040;-73
2023/08/28 11:03:11;;;;;;;2.80;0.85;;;19.40;99.90;;;;;;5042772;28;20230;-73
2023/08/28 11:05:39;;;;;;;1.55;0.60;;;19.50;99.90;;;;;;5058199;28;20123;-73
2023/08/28 11:08:06;;;;;;;1.42;0.50;;;19.60;99.90;;;;;;5040015;28;20040;-72
2023/08/28 11:10:33;;;;;;;3.15;0.65;;;19.80;99.90;;;;;;5061303;28;20098;-72
2023/08/28 11:13:05;;;;;;;1.70;0.70;;;20.00;99.90;;;;;;5040351;28;21228;-73
2023/08/28 11:15:38;;;;;;;1.40;0.57;;;20.20;99.90;;;;;;5044797;28;20133;-73
2023/08/28 11:18:23;;;;;;;2.22;0.63;;;20.20;99.90;;;;;;5074067;28;20514;-73
2023/08/28 11:20:58;;;;;;;1.77;0.63;;;20.30;99.90;;;;;;5059996;28;20063;-72
2023/08/28 11:23:33;;;;;;;2.42;0.50;;;20.60;99.90;;;;;;5058798;28;20048;-73
2023/08/28 11:26:06;;;;;;;1.30;0.60;;;20.90;99.90;;;;;;5057716;28;20057;-72
2023/08/28 11:28:45;;;;;;;3.00;0.93;;;21.10;99.90;;;;;;5038858;28;20105;-74
2023/08/28 11:31:12;;;;;;;1.57;0.77;;;21.30;99.90;;;;;;5096794;28;20056;-72
2023/08/28 11:33:40;;;;;;;3.55;1.00;;;21.10;99.90;;;;;;5057671;28;20051;-72
2023/08/28 11:36:08;;;;;;;3.05;0.93;;;20.90;99.90;;;;;;5059726;28;20047;-72
2023/08/28 11:38:35;;;;;;;2.22;0.60;;;20.60;99.90;;;;;;5057360;28;20049;-73
2023/08/28 11:41:05;;;;;;;2.08;0.68;;;20.30;99.90;;;;;;5059144;28;20647;-72
2023/08/28 11:43:35;;;;;;;3.47;0.90;;;20.00;99.90;;;;;;5056193;28;20044;-71
2023/08/28 11:46:03;;;;;;;1.77;0.68;;;19.90;99.90;;;;;;5042779;28;20057;-73
2023/08/28 11:48:39;;;;;;;3.83;0.80;;;19.80;99.90;;;;;;5045453;28;20068;-72
2023/08/28 11:51:07;;;;;;;2.95;0.65;;;19.80;99.90;;;;;;5043154;28;20048;-73
2023/08/28 11:53:41;;;;;;;2.45;0.73;;;19.90;99.90;;;;;;5057274;28;20102;-72
2023/08/28 11:56:08;;;;;;;1.65;0.70;;;19.80;99.90;;;;;;5044535;28;20078;-72
2023/08/28 11:58:35;;;;;;;1.80;0.60;;;19.70;99.90;;;;;;5055227;28;20049;-72
2023/08/28 12:01:07;;;;;;;3.17;0.82;;;19.60;99.90;;;;;;5042079;28;20414;-73
2023/08/28 12:03:33;;;;;;;3.92;1.10;;;19.50;99.90;;;;;;5057855;28;20116;-72
2023/08/28 12:06:07;;;;;;;2.65;0.95;;;19.40;99.90;;;;;;5060294;28;20501;-72
2023/08/28 12:08:37;;;;;;;3.63;1.05;;;19.30;99.90;;;;;;5059544;28;20051;-72
2023/08/28 12:11:12;;;;;;;3.45;1.10;;;19.30;99.90;;;;;;5058414;28;20048;-72
2023/08/28 12:13:37;;;;;;;3.13;1.17;;;19.30;99.90;;;;;;5059183;28;20618;-72
2023/08/28 12:16:17;;;;;;;1.45;0.55;;;19.30;99.90;;;;;;5059725;28;20078;-73
2023/08/28 12:18:43;;;;;;;3.72;1.38;;;19.50;99.90;;;;;;5072599;28;20215;-73
2023/08/28 12:21:09;;;;;;;1.15;0.73;;;19.70;99.90;;;;;;5038477;28;20406;-72
2023/08/28 12:23:47;;;;;;;1.90;0.70;;;19.90;99.90;;;;;;5060410;28;20423;-72
2023/08/28 12:26:15;;;;;;;1.38;0.47;;;20.20;99.90;;;;;;5040830;28;20080;-72
2023/08/28 12:28:42;;;;;;;3.60;0.80;;;20.40;99.90;;;;;;5076612;28;20036;-73
2023/08/28 12:31:08;;;;;;;3.33;0.95;;;20.50;99.90;;;;;;5091743;28;20040;-72
2023/08/28 12:33:44;;;;;;;1.85;0.68;;;20.60;99.90;;;;;;5061366;28;20055;-73
2023/08/28 12:36:11;;;;;;;1.42;0.60;;;20.70;99.90;;;;;;5057855;28;20135;-73
2023/08/28 12:38:50;;;;;;;2.38;0.70;;;20.70;99.90;;;;;;5043576;28;20531;-73
2023/08/28 12:41:17;;;;;;;1.85;0.68;;;20.80;99.90;;;;;;5056658;28;20319;-72